Tropical Cyclones
[Index]
Main Index Home Page Stock Weather Photos Extreme Storms Discussion Storm News and Storm Chasing Reports Tropical Cyclones / Hurricanes / Typhoons Weather Data and Links Wild Fires / Bushfires Weather Observation Techniques Weather Picture Catalogue Tornado Pictures and Reports Stock Video Footage and DVDs for sale
Season 1984-1985 Tropical Cyclone BOBALAHY Track Map
Season 1984-1985 Summaries: [BoM-AU] [JTWC-AU] [JTWC-SIO] [JTWC-SPAC] [JTWC-SH]
<<- Previous TC | JTWC 1984-1985 Season | Next TC ->>

click for intensity scale information  Lat/long Grid: Show Hide

 Date Labels: Show Hide

Joint Typhoon Warning Centre Cyclone Data

Name: BOBALAHY

02 Dec 1984 06:00 UTC to 08 Dec 1984 06:00 UTC

    date/time    lat    long     hPa   cat  kts
1984-12-02 06   10.7    82.1                  25          
1984-12-02 12   11.3    81.6                  25          
1984-12-02 18   11.9    81.0                  30          
1984-12-03 00   12.5    80.3                  35          
1984-12-03 06   13.1    79.4            1     40          
1984-12-03 12   13.7    78.3            1     40          
1984-12-03 18   14.3    77.2            1     45          
1984-12-04 00   14.6    76.2            1     45          
1984-12-04 06   14.8    75.2            1     50          
1984-12-04 12   15.2    74.3            2     55          
1984-12-04 18   15.6    73.5            2     55          
1984-12-05 00   16.1    72.9            2     55          
1984-12-05 06   16.6    72.3            2     55          
1984-12-05 12   17.0    71.7            2     55          
1984-12-05 18   17.4    71.1            2     55          
1984-12-06 00   17.8    70.6            1     50          
1984-12-06 06   18.2    70.1            1     45          
1984-12-06 12   18.6    69.6            1     45          
1984-12-06 18   18.9    69.0            1     40          
1984-12-07 00   19.3    68.3                  35          
1984-12-07 06   19.7    67.5                  30          
1984-12-07 12   20.0    66.6                  30          
1984-12-07 18   20.2    65.8                  25          
1984-12-08 00   20.4    65.0                  25          
1984-12-08 06   20.6    64.2                  20          
Winds are 1-min average.

Tropical cyclone tracks developed by Michael Bath using data from the Joint Typhoon Warning Centre Best Tracks and Google Maps.


[Australian Severe Weather index] [Copyright Notice] [Email Contacts] [Search This Site] [Privacy Policy]
Document: tropical_cyclone_bobalahy.htm Updated: 18 September 2016